Time;durP1;ratioP1;P1;durP2;ratioP2;P2;SDS_P1;SDS_P2;PMS_P1;PMS_P2;Temp;Humidity;BMP_temperature;BMP_pressure;BME280_temperature;BME280_humidity;BME280_pressure;Samples;Min_cycle;Max_cycle;Signal;HPM_P1;HPM_P2
2023/01/16 00:00:29;;;;;;;2.47;0.73;;;;;;;4.00;61.20;97951.78;5199726;28;20176;-84
2023/01/16 00:03:20;;;;;;;5.65;0.80;;;;;;;4.17;61.13;97951.22;5225249;28;20087;-84
2023/01/16 00:06:10;;;;;;;6.80;1.17;;;;;;;4.38;60.80;97938.09;5216402;28;20081;-84
2023/01/16 00:09:02;;;;;;;5.47;0.82;;;;;;;4.42;60.86;97946.53;5204305;28;20049;-84
2023/01/16 00:11:52;;;;;;;2.63;0.88;;;;;;;4.18;61.46;97950.25;5191017;28;20085;-84
2023/01/16 00:14:42;;;;;;;7.85;0.90;;;;;;;4.32;60.13;97885.28;5191089;28;20120;-84
2023/01/16 00:17:32;;;;;;;6.20;0.90;;;;;;;4.85;60.12;97919.19;5180156;28;20591;-84
2023/01/16 00:20:23;;;;;;;7.70;0.82;;;;;;;4.95;58.95;97948.94;5228642;28;20095;-85
2023/01/16 00:23:15;;;;;;;7.60;1.13;;;;;;;5.05;58.73;97946.34;5226000;28;20095;-86
2023/01/16 00:26:07;;;;;;;4.13;0.57;;;;;;;4.68;59.06;97891.78;5190597;28;20116;-82
2023/01/16 00:28:57;;;;;;;4.55;1.13;;;;;;;4.80;58.09;97881.97;5215883;28;20067;-83
2023/01/16 00:31:47;;;;;;;4.85;0.90;;;;;;;4.75;58.35;97848.25;5219681;28;20104;-84
2023/01/16 00:34:37;;;;;;;3.42;0.65;;;;;;;5.19;58.12;97907.34;5213382;28;20511;-83
2023/01/16 00:37:27;;;;;;;3.38;0.70;;;;;;;4.94;58.83;97839.59;5201398;28;20076;-85
2023/01/16 00:40:18;;;;;;;6.10;0.85;;;;;;;4.76;58.99;97838.56;5226238;28;20045;-83
2023/01/16 00:43:08;;;;;;;3.20;0.80;;;;;;;5.09;59.44;97889.91;5182441;28;20077;-83
2023/01/16 00:45:59;;;;;;;3.65;0.90;;;;;;;5.10;58.52;97854.78;5182801;28;20058;-84
2023/01/16 00:48:49;;;;;;;6.47;1.15;;;;;;;5.26;58.41;97862.97;5206046;28;20106;-84
2023/01/16 00:51:40;;;;;;;8.82;0.90;;;;;;;5.26;58.81;97883.16;5225944;28;20130;-84
2023/01/16 00:54:30;;;;;;;3.75;0.75;;;;;;;5.18;58.91;97865.47;5226221;28;20134;-82
2023/01/16 00:57:20;;;;;;;7.30;0.70;;;;;;;5.25;58.83;97869.19;5223613;28;20102;-82
2023/01/16 01:00:11;;;;;;;3.50;0.80;;;;;;;5.00;59.63;97857.44;5218660;28;20057;-82
2023/01/16 01:03:01;;;;;;;5.50;0.93;;;;;;;5.54;57.93;97882.34;5205726;28;20423;-82
2023/01/16 01:05:52;;;;;;;4.60;0.70;;;;;;;5.40;58.37;97864.38;5205075;28;20060;-82
2023/01/16 01:08:42;;;;;;;7.93;0.73;;;;;;;5.32;58.38;97849.25;5204538;28;20049;-82
2023/01/16 01:11:32;;;;;;;5.53;0.90;;;;;;;5.32;57.77;97848.44;5189656;28;20046;-82
2023/01/16 01:14:22;;;;;;;4.90;0.80;;;;;;;5.21;58.39;97862.56;5185818;28;20050;-83
2023/01/16 01:17:12;;;;;;;1.75;0.70;;;;;;;5.14;58.34;97833.38;5186108;28;20057;-83
2023/01/16 01:20:03;;;;;;;1.95;0.60;;;;;;;4.69;58.86;97835.66;5192608;28;20057;-84
2023/01/16 01:22:53;;;;;;;5.18;0.95;;;;;;;4.29;59.96;97799.78;5238268;28;20107;-84
2023/01/16 01:25:44;;;;;;;5.43;0.73;;;;;;;4.87;59.51;97838.47;5238847;28;20118;-85
2023/01/16 01:28:34;;;;;;;6.75;1.48;;;;;;;4.67;59.86;97806.09;5217729;28;20059;-84
2023/01/16 01:31:24;;;;;;;8.20;1.05;;;;;;;4.81;59.91;97818.00;5193110;28;20641;-84
2023/01/16 01:34:15;;;;;;;5.18;0.63;;;;;;;4.90;59.19;97828.53;5193175;28;20050;-84
2023/01/16 01:37:06;;;;;;;4.85;0.60;;;;;;;4.69;59.25;97818.09;5204033;28;20064;-84
2023/01/16 01:39:56;;;;;;;4.57;0.75;;;;;;;4.49;59.66;97805.91;5203527;28;20669;-84
2023/01/16 01:42:51;;;;;;;2.63;0.65;;;;;;;4.59;59.97;97803.31;5225893;28;20056;-84
2023/01/16 01:45:47;;;;;;;5.38;1.23;;;;;;;4.50;60.04;97804.94;5225135;28;20071;-84
2023/01/16 01:48:41;;;;;;;3.80;0.80;;;;;;;4.29;60.54;97789.28;5216060;28;20065;-84
2023/01/16 01:51:39;;;;;;;4.30;0.90;;;;;;;4.16;60.76;97781.66;5223965;28;20072;-84
2023/01/16 01:54:44;;;;;;;4.10;0.85;;;;;;;4.10;61.30;97763.81;5224799;28;20080;-83
2023/01/16 01:57:39;;;;;;;4.10;0.88;;;;;;;3.89;61.47;97760.44;5219776;28;20106;-84
2023/01/16 02:00:30;;;;;;;11.82;0.88;;;;;;;3.89;61.43;97747.31;5206018;28;20076;-84
2023/01/16 02:03:26;;;;;;;4.35;0.70;;;;;;;4.20;60.34;97748.09;5210475;28;20049;-84
2023/01/16 02:06:21;;;;;;;8.65;0.90;;;;;;;4.03;60.85;97760.06;5205904;28;20059;-84
2023/01/16 02:09:12;;;;;;;6.35;1.10;;;;;;;4.16;60.46;97742.28;5189404;28;20056;-84
2023/01/16 02:12:08;;;;;;;2.13;0.70;;;;;;;4.20;60.20;97738.44;5212679;28;20202;-84
2023/01/16 02:14:58;;;;;;;2.17;0.70;;;;;;;4.21;59.94;97702.56;5211348;28;20138;-84
2023/01/16 02:21:27;;;;;;;4.65;0.80;;;;;;;3.94;61.08;97704.00;5211366;28;20060;-84
2023/01/16 02:24:29;;;;;;;3.22;0.90;;;;;;;3.95;60.58;97673.38;5226290;28;20055;-84
2023/01/16 02:27:49;;;;;;;3.22;0.95;;;;;;;4.03;60.33;97664.81;5226097;28;20087;-84
2023/01/16 02:31:00;;;;;;;1.60;0.80;;;;;;;4.08;60.52;97673.13;5213341;28;20049;-84
2023/01/16 02:34:03;;;;;;;9.50;1.15;;;;;;;3.97;60.87;97671.44;5225928;28;20614;-84
2023/01/16 02:37:09;;;;;;;4.00;0.80;;;;;;;4.11;60.82;97667.63;5225026;28;20060;-84
2023/01/16 02:40:05;;;;;;;5.68;1.00;;;;;;;4.08;60.23;97663.47;5185870;28;20065;-84
2023/01/16 02:43:02;;;;;;;5.85;1.00;;;;;;;3.91;61.25;97651.00;5225404;28;20108;-84
2023/01/16 02:46:03;;;;;;;4.82;1.05;;;;;;;3.80;61.58;97638.00;5225983;28;20049;-84
2023/01/16 02:49:21;;;;;;;8.23;0.88;;;;;;;3.56;62.26;97607.72;5213447;28;20744;-84
2023/01/16 02:52:29;;;;;;;5.43;1.15;;;;;;;3.58;61.97;97582.22;5186800;28;20072;-85
2023/01/16 02:55:31;;;;;;;6.53;1.08;;;;;;;3.69;61.96;97608.31;5189052;28;20065;-86
2023/01/16 02:58:23;;;;;;;5.63;1.13;;;;;;;3.23;62.73;97573.00;5195142;28;20057;-87
2023/01/16 03:01:13;;;;;;;5.90;1.10;;;;;;;2.88;62.92;97509.75;5233723;28;20087;-85
2023/01/16 03:04:26;;;;;;;4.82;0.82;;;;;;;3.25;63.23;97576.34;5237853;28;20098;-85
2023/01/16 03:07:41;;;;;;;8.20;1.10;;;;;;;3.58;62.48;97576.16;5221188;28;20523;-84
2023/01/16 03:10:43;;;;;;;4.78;0.77;;;;;;;3.53;62.56;97566.06;5223026;28;20037;-84
2023/01/16 03:13:53;;;;;;;8.60;0.93;;;;;;;3.72;61.75;97565.28;5218885;28;20060;-84
2023/01/16 03:16:43;;;;;;;4.20;0.80;;;;;;;3.65;62.28;97551.06;5201069;28;20076;-85
2023/01/16 03:19:43;;;;;;;4.13;0.75;;;;;;;3.90;62.29;97547.06;5223104;28;20061;-84
2023/01/16 03:22:39;;;;;;;6.78;1.02;;;;;;;3.59;61.62;97494.75;5219955;28;20107;-84
2023/01/16 03:25:48;;;;;;;5.10;1.10;;;;;;;3.95;60.88;97490.63;5220579;28;20056;-85
2023/01/16 03:28:56;;;;;;;3.10;0.73;;;;;;;4.10;61.03;97493.63;5213498;28;20079;-85
2023/01/16 03:31:57;;;;;;;2.22;0.82;;;;;;;4.13;59.67;97463.69;5207942;28;20060;-84
2023/01/16 03:35:13;;;;;;;6.43;0.85;;;;;;;4.17;60.07;97467.66;5219880;28;20072;-85
2023/01/16 03:38:08;;;;;;;2.95;0.88;;;;;;;4.29;60.15;97466.53;5210321;28;20061;-87
2023/01/16 03:41:02;;;;;;;5.20;0.80;;;;;;;3.96;60.94;97439.00;5210102;28;20076;-82
2023/01/16 03:43:57;;;;;;;;;;;;;;;4.22;61.18;97487.28;5239529;28;20048;-83
2023/01/16 03:46:51;;;;;;;3.58;0.90;;;;;;;4.22;61.39;97487.28;5225242;28;19920;-84
2023/01/16 03:49:48;;;;;;;5.82;0.95;;;;;;;3.75;62.32;97453.09;5231300;28;20708;-83
2023/01/16 03:52:43;;;;;;;3.83;0.80;;;;;;;3.72;61.45;97427.16;5219478;28;20202;-83
2023/01/16 03:55:52;;;;;;;2.70;0.90;;;;;;;3.54;61.83;97428.81;5219297;28;20658;-83
2023/01/16 03:58:46;;;;;;;3.22;1.00;;;;;;;3.34;63.48;97432.41;5214922;28;20053;-83
2023/01/16 04:01:45;;;;;;;3.53;0.90;;;;;;;3.79;62.09;97416.13;5226834;28;20088;-85
2023/01/16 04:04:49;;;;;;;3.35;0.80;;;;;;;3.76;62.46;97443.44;5212067;28;20095;-84
2023/01/16 04:07:44;;;;;;;5.47;1.00;;;;;;;3.03;62.60;97344.28;5217133;28;20057;-84
2023/01/16 04:10:38;;;;;;;2.55;0.95;;;;;;;3.70;62.34;97429.09;5208906;28;20064;-84
2023/01/16 04:13:35;;;;;;;5.65;0.70;;;;;;;2.99;62.57;97335.06;5237360;28;20076;-82
2023/01/16 04:16:28;;;;;;;2.63;0.93;;;;;;;3.19;63.02;97376.97;5237776;28;20057;-83
2023/01/16 04:19:21;;;;;;;4.80;0.82;;;;;;;3.05;62.68;97349.41;5205616;28;20052;-84
2023/01/16 04:22:21;;;;;;;2.63;1.00;;;;;;;3.23;63.46;97384.41;5223633;28;20132;-81
2023/01/16 04:25:11;;;;;;;3.33;0.60;;;;;;;3.43;62.46;97380.00;5207222;28;20643;-82
2023/01/16 04:28:01;;;;;;;3.50;0.75;;;;;;;3.50;62.33;97375.03;5213336;28;20624;-82
2023/01/16 04:30:52;;;;;;;4.93;0.65;;;;;;;3.28;63.05;97336.88;5228916;28;20056;-82
2023/01/16 04:33:42;;;;;;;2.67;0.90;;;;;;;3.67;61.71;97352.53;5232875;28;20056;-81
2023/01/16 04:36:32;;;;;;;5.75;0.80;;;;;;;3.25;62.13;97300.47;5233049;28;20060;-81
2023/01/16 04:39:23;;;;;;;5.63;0.70;;;;;;;3.90;60.58;97319.75;5212810;28;20128;-81
2023/01/16 04:42:13;;;;;;;8.90;1.02;;;;;;;3.57;61.22;97260.81;5203355;28;20076;-81
2023/01/16 04:45:04;;;;;;;2.53;0.60;;;;;;;3.95;60.18;97314.09;5213070;28;20049;-82
2023/01/16 04:47:54;;;;;;;5.65;0.80;;;;;;;4.06;60.05;97313.09;5212671;28;20057;-81
2023/01/16 04:50:48;;;;;;;2.35;0.63;;;;;;;3.71;60.14;97273.47;5216487;28;20136;-83
2023/01/16 04:53:38;;;;;;;5.05;0.60;;;;;;;3.73;60.24;97268.09;5192096;28;20057;-83
2023/01/16 04:56:28;;;;;;;2.83;0.70;;;;;;;4.13;59.74;97267.78;5205506;28;20061;-83
2023/01/16 04:59:18;;;;;;;2.95;0.70;;;;;;;4.10;59.83;97267.25;5202021;28;20117;-81
2023/01/16 05:02:08;;;;;;;2.30;0.75;;;;;;;4.22;59.20;97266.91;5187249;28;20420;-81
2023/01/16 05:05:02;;;;;;;1.48;0.50;;;;;;;4.10;59.65;97252.31;5186176;28;20455;-81
2023/01/16 05:11:02;;;;;;;4.15;0.77;;;;;;;3.75;60.09;97242.56;5221708;28;20052;-81
2023/01/16 05:13:53;;;;;;;2.63;0.68;;;;;;;3.96;59.81;97234.47;5212272;28;20118;-81
2023/01/16 05:16:43;;;;;;;5.80;0.52;;;;;;;3.29;60.68;97153.34;5246613;28;20040;-81
2023/01/16 05:19:33;;;;;;;3.50;0.55;;;;;;;3.87;60.99;97220.41;5217673;28;20195;-82
2023/01/16 05:22:23;;;;;;;1.27;0.50;;;;;;;3.76;60.29;97192.59;5224464;28;20754;-82
2023/01/16 05:25:13;;;;;;;2.75;0.50;;;;;;;3.70;60.46;97184.50;5214258;28;20044;-81
2023/01/16 05:28:04;;;;;;;3.08;0.70;;;;;;;3.78;61.32;97194.28;5209099;28;20053;-81
2023/01/16 05:30:54;;;;;;;5.07;0.60;;;;;;;3.81;60.62;97189.56;5238054;28;20045;-84
2023/01/16 05:33:45;;;;;;;1.85;0.60;;;;;;;3.63;61.20;97173.75;5230420;28;20045;-84
2023/01/16 05:36:35;;;;;;;2.72;0.70;;;;;;;3.38;60.85;97137.72;5228054;28;20060;-83
2023/01/16 05:39:25;;;;;;;3.08;0.73;;;;;;;3.92;59.88;97159.69;5208887;28;20103;-82
2023/01/16 05:42:23;;;;;;;6.68;0.80;;;;;;;4.03;60.15;97151.59;5207446;28;20061;-82
2023/01/16 05:45:13;;;;;;;4.03;0.70;;;;;;;4.07;60.11;97150.34;5202458;28;20492;-83
2023/01/16 05:48:04;;;;;;;4.47;0.70;;;;;;;4.15;59.89;97144.38;5176272;28;20060;-82
2023/01/16 05:50:53;;;;;;;2.50;0.88;;;;;;;4.05;59.26;97115.56;5215040;28;20053;-83
2023/01/16 05:53:49;;;;;;;7.40;0.90;;;;;;;3.79;60.46;97070.09;5204680;28;20139;-84
2023/01/16 05:56:39;;;;;;;2.83;0.70;;;;;;;4.12;59.93;97087.78;5215288;28;20057;-83
2023/01/16 05:59:33;;;;;;;3.22;1.15;;;;;;;3.98;60.75;97076.00;5215455;28;20041;-81
2023/01/16 06:02:24;;;;;;;3.60;1.20;;;;;;;3.57;60.29;97006.63;5188533;28;20053;-82
2023/01/16 06:05:15;;;;;;;6.05;1.00;;;;;;;3.90;60.15;97041.03;5212351;28;20073;-83
2023/01/16 06:08:05;;;;;;;6.35;0.90;;;;;;;3.50;60.65;97002.97;5211369;28;20081;-83
2023/01/16 06:10:57;;;;;;;26.30;6.20;;;;;;;3.86;60.45;97029.19;5221295;28;20565;-83
2023/01/16 06:13:47;;;;;;;2.88;0.88;;;;;;;3.86;60.90;97021.31;5208817;28;20064;-82
2023/01/16 06:16:37;;;;;;;3.78;0.60;;;;;;;4.10;59.32;97016.28;5201394;28;20955;-81
2023/01/16 06:19:27;;;;;;;3.03;0.80;;;;;;;4.27;59.78;97032.16;5183870;28;20056;-81
2023/01/16 06:22:18;;;;;;;5.35;0.70;;;;;;;3.90;58.90;96964.97;5185443;28;20054;-81
2023/01/16 06:25:09;;;;;;;5.85;1.00;;;;;;;4.23;59.38;97016.72;5199123;28;20068;-81
2023/01/16 06:27:59;;;;;;;2.88;0.50;;;;;;;4.63;57.43;96977.78;5220145;28;20056;-83
2023/01/16 06:30:52;;;;;;;5.93;1.15;;;;;;;3.90;58.83;96904.69;5217722;28;20112;-83
2023/01/16 06:33:43;;;;;;;3.80;0.82;;;;;;;4.10;58.80;96934.16;5216071;28;20049;-82
2023/01/16 06:36:33;;;;;;;2.67;0.60;;;;;;;4.23;58.70;96930.13;5207329;28;20570;-81
2023/01/16 06:39:23;;;;;;;3.75;0.95;;;;;;;4.30;58.78;96932.97;5214876;28;20049;-82
2023/01/16 06:42:14;;;;;;;2.45;0.73;;;;;;;4.44;58.25;96949.97;5204335;28;20572;-83
2023/01/16 06:45:05;;;;;;;1.90;0.52;;;;;;;4.45;58.29;96941.09;5209299;28;20049;-82
2023/01/16 06:47:55;;;;;;;2.20;0.68;;;;;;;4.52;57.97;96930.81;5214307;28;20261;-82
2023/01/16 06:50:45;;;;;;;2.92;0.85;;;;;;;4.63;58.16;96952.34;5208244;28;20159;-82
2023/01/16 06:53:44;;;;;;;4.80;0.73;;;;;;;4.43;57.94;96915.00;5212327;28;20044;-82
2023/01/16 06:56:35;;;;;;;1.77;0.65;;;;;;;4.56;58.51;96922.44;5213996;28;20046;-82
2023/01/16 06:59:25;;;;;;;2.65;0.80;;;;;;;4.55;57.82;96923.44;5196698;28;20172;-84
2023/01/16 07:02:15;;;;;;;5.60;0.75;;;;;;;4.55;58.23;96928.69;5195342;28;20045;-82
2023/01/16 07:05:09;;;;;;;5.65;1.08;;;;;;;4.26;58.86;96925.56;5204334;28;20142;-82
2023/01/16 07:08:00;;;;;;;0.82;0.60;;;;;;;4.25;59.13;96909.03;5185417;28;20973;-85
2023/01/16 07:10:50;;;;;;;3.58;0.80;;;;;;;4.46;58.12;96906.00;5202873;28;20049;-83
2023/01/16 07:13:40;;;;;;;5.32;0.90;;;;;;;4.20;58.18;96879.78;5221881;28;20589;-82
2023/01/16 07:22:48;;;;;;;2.72;0.90;;;;;;;4.66;57.71;96889.03;5219349;28;20060;-82
2023/01/16 07:25:39;;;;;;;4.78;0.70;;;;;;;4.70;57.87;96903.50;5184550;28;20501;-83
2023/01/16 07:28:30;;;;;;;1.90;0.80;;;;;;;4.71;57.69;96884.13;5179328;28;20417;-83
2023/01/16 07:31:22;;;;;;;3.25;0.68;;;;;;;4.81;56.81;96877.94;5198105;28;20060;-83
2023/01/16 07:34:12;;;;;;;5.53;1.33;;;;;;;4.76;57.30;96869.72;5230355;28;20104;-82
2023/01/16 07:37:02;;;;;;;2.72;0.90;;;;;;;4.60;57.83;96862.59;5240907;28;20059;-83
2023/01/16 07:39:52;;;;;;;3.25;1.10;;;;;;;4.33;56.81;96777.88;5200894;28;20053;-83
2023/01/16 07:42:42;;;;;;;2.80;1.00;;;;;;;4.61;57.58;96836.19;5190939;28;20123;-83
2023/01/16 07:45:33;;;;;;;3.83;0.73;;;;;;;4.57;57.94;96821.75;5215233;28;20067;-82
2023/01/16 07:48:24;;;;;;;2.22;0.90;;;;;;;4.72;58.43;96845.59;5184775;28;20107;-82
2023/01/16 07:51:14;;;;;;;4.90;0.90;;;;;;;4.77;58.13;96832.81;5184560;28;20050;-82
2023/01/16 07:54:04;;;;;;;3.92;0.93;;;;;;;4.71;58.35;96828.19;5218398;28;20053;-82
2023/01/16 07:56:54;;;;;;;5.93;0.98;;;;;;;4.76;58.00;96828.53;5221818;28;20061;-83
2023/01/16 07:59:45;;;;;;;2.75;0.95;;;;;;;4.69;57.66;96783.72;5223235;28;20061;-83
2023/01/16 08:02:35;;;;;;;1.95;1.00;;;;;;;4.72;57.88;96799.16;5223174;28;20083;-83
2023/01/16 08:05:27;;;;;;;4.07;1.00;;;;;;;4.67;57.49;96804.06;5194170;28;20052;-83
2023/01/16 08:08:18;;;;;;;4.65;1.13;;;;;;;4.73;57.68;96792.09;5181263;28;20143;-83
2023/01/16 08:14:17;;;;;;;4.97;1.02;;;;;;;4.97;57.17;96772.94;5201287;28;20456;-83
2023/01/16 08:17:08;;;;;;;7.00;2.00;;;;;;;5.07;55.94;96775.41;5215236;28;20045;-82
2023/01/16 08:19:58;;;;;;;3.20;1.10;;;;;;;4.84;55.93;96735.84;5206687;28;20119;-82
2023/01/16 08:22:50;;;;;;;3.70;1.10;;;;;;;5.12;55.88;96773.91;5222383;28;20068;-83
2023/01/16 08:25:40;;;;;;;3.03;1.00;;;;;;;4.66;56.95;96765.66;5220776;28;20080;-84
2023/01/16 08:28:30;;;;;;;3.63;0.90;;;;;;;4.77;56.42;96754.03;5221199;28;20104;-84
2023/01/16 08:31:20;;;;;;;2.38;1.17;;;;;;;5.26;55.68;96732.19;5242913;28;20028;-84
2023/01/16 08:34:11;;;;;;;1.63;0.85;;;;;;;5.39;55.79;96743.84;5247905;28;20041;-83
2023/01/16 08:37:03;;;;;;;6.60;1.45;;;;;;;5.57;54.69;96738.41;5242087;28;20071;-83
2023/01/16 08:39:55;;;;;;;;;;;;;;;5.38;55.59;96750.09;5224801;28;20041;-82
2023/01/16 08:51:21;;;;;;;1.42;0.52;;;;;;;5.33;54.89;96689.34;5213571;28;20045;-80
2023/01/16 08:52:29;;;;;;;3.83;0.80;;;;;;;5.50;54.98;96716.41;5231755;28;20516;-81
2023/01/16 08:55:20;;;;;;;3.80;1.00;;;;;;;5.86;54.29;96711.53;5238206;28;20202;-81
2023/01/16 08:58:10;;;;;;;5.03;1.02;;;;;;;5.92;52.65;96693.44;5223253;28;20048;-81
2023/01/16 09:01:00;;;;;;;1.60;0.82;;;;;;;5.95;54.03;96698.38;5186509;28;20050;-82
2023/01/16 09:03:52;;;;;;;3.22;1.02;;;;;;;5.96;53.79;96716.63;5184780;28;20113;-82
2023/01/16 09:06:42;;;;;;;4.40;0.85;;;;;;;6.09;54.15;96713.44;5183228;28;20072;-83
2023/01/16 09:09:34;;;;;;;2.88;0.93;;;;;;;5.94;53.51;96691.50;5193643;28;20085;-83
2023/01/16 09:15:33;;;;;;;4.93;0.95;;;;;;;6.30;53.09;96713.66;5209228;28;20115;-81
2023/01/16 09:18:23;;;;;;;2.28;0.90;;;;;;;6.11;52.58;96688.59;5190969;28;20065;-82
2023/01/16 09:21:14;;;;;;;2.38;1.02;;;;;;;6.36;52.95;96722.69;5204989;28;20096;-82
2023/01/16 09:24:05;;;;;;;3.95;1.92;;;;;;;6.30;52.91;96724.19;5192179;28;20056;-81
2023/01/16 09:26:55;;;;;;;4.35;1.00;;;;;;;6.18;53.23;96698.44;5215592;28;20361;-82
2023/01/16 09:29:45;;;;;;;2.83;1.00;;;;;;;6.33;52.95;96737.00;5204753;28;20130;-81
2023/01/16 09:32:35;;;;;;;3.42;1.15;;;;;;;6.25;52.96;96734.41;5205446;28;20522;-81
2023/01/16 09:35:25;;;;;;;1.83;1.00;;;;;;;6.27;51.85;96729.00;5206125;28;20423;-82
2023/01/16 09:38:15;;;;;;;2.08;0.93;;;;;;;5.88;53.66;96708.72;5205292;28;20531;-81
2023/01/16 09:41:13;;;;;;;2.33;0.50;;;;;;;5.25;54.70;96678.03;5204152;28;20435;-81
2023/01/16 09:44:08;;;;;;;1.63;0.55;;;;;;;5.17;54.58;96690.19;5185598;28;20054;-80
2023/01/16 09:46:59;;;;;;;2.85;0.80;;;;;;;4.91;54.65;96653.59;5184250;28;20053;-81
2023/01/16 09:49:53;;;;;;;1.67;0.70;;;;;;;5.22;53.39;96659.97;5184870;28;20576;-80
2023/01/16 09:59:19;;;;;;;2.60;0.88;;;;;;;5.07;53.89;96644.91;5216094;28;20053;-82
2023/01/16 10:02:32;;;;;;;2.53;0.68;;;;;;;4.99;53.60;96623.88;5204983;28;20061;-82
2023/01/16 10:05:26;;;;;;;2.47;0.70;;;;;;;5.50;52.81;96632.31;5205999;28;20054;-81
2023/01/16 10:08:39;;;;;;;1.83;1.00;;;;;;;5.03;52.38;96572.66;5204823;28;20041;-80
2023/01/16 10:11:42;;;;;;;2.83;0.87;;;;;;;5.71;52.37;96615.13;5210535;28;20072;-82
2023/01/16 10:14:58;;;;;;;0.85;0.70;;;;;;;5.67;51.52;96612.03;5172745;28;20579;-81
2023/01/16 10:18:32;;;;;;;2.22;1.05;;;;;;;5.34;52.67;96606.06;5192504;28;20050;-82
2023/01/16 10:21:27;;;;;;;1.70;0.73;;;;;;;5.56;51.95;96578.22;5167286;28;20101;-82
2023/01/16 10:24:36;;;;;;;1.10;0.50;;;;;;;5.74;51.50;96564.84;5152063;28;20057;-82
2023/01/16 10:27:34;;;;;;;1.08;0.45;;;;;;;5.67;49.99;96554.19;5226832;28;20044;-82
2023/01/16 10:31:08;;;;;;;2.58;0.55;;;;;;;5.90;48.47;96548.97;5227690;28;20183;-82
2023/01/16 10:34:15;;;;;;;0.73;0.53;;;;;;;6.08;48.55;96546.88;5205982;28;20069;-83
2023/01/16 10:37:06;;;;;;;1.98;0.45;;;;;;;5.89;49.12;96539.41;5225259;28;20064;-82
2023/01/16 10:40:00;;;;;;;1.08;0.65;;;;;;;6.02;48.94;96487.06;5206922;28;20049;-82
2023/01/16 10:49:41;;;;;;;2.47;0.60;;;;;;;5.71;47.98;96512.59;5183850;28;20057;-81
2023/01/16 10:52:32;;;;;;;0.93;0.35;;;;;;;5.78;48.29;96526.69;5184639;28;20496;-83
2023/01/16 10:55:22;;;;;;;1.75;0.32;;;;;;;5.91;47.01;96523.47;5224375;28;20168;-84
2023/01/16 10:58:35;;;;;;;1.48;0.50;;;;;;;6.18;47.88;96516.88;5230511;28;20060;-83
2023/01/16 11:01:26;;;;;;;1.15;0.60;;;;;;;5.91;47.97;96482.22;5218816;28;20056;-83
2023/01/16 11:04:19;;;;;;;1.60;0.30;;;;;;;5.64;49.09;96429.16;5217108;28;20065;-83
2023/01/16 11:07:21;;;;;;;0.75;0.20;;;;;;;5.76;49.69;96468.19;5218369;28;20112;-83
2023/01/16 11:10:15;;;;;;;0.80;0.30;;;;;;;5.89;50.83;96468.41;5217990;28;20140;-84
2023/01/16 11:19:43;;;;;;;1.58;0.40;;;;;;;5.99;52.91;96458.50;5241877;28;20112;-85
2023/01/16 11:22:39;;;;;;;0.57;0.38;;;;;;;6.01;52.58;96460.97;5242530;28;20083;-84
2023/01/16 11:25:31;;;;;;;0.32;0.20;;;;;;;5.74;52.99;96434.19;5240485;28;20056;-84
2023/01/16 11:28:31;;;;;;;2.40;0.45;;;;;;;5.85;53.21;96451.34;5225938;28;20052;-84
2023/01/16 11:31:25;;;;;;;3.40;0.55;;;;;;;5.48;55.08;96412.69;5240298;28;20056;-84
2023/01/16 11:34:16;;;;;;;1.10;0.30;;;;;;;5.46;55.79;96414.66;5241577;28;20059;-85
2023/01/16 11:37:07;;;;;;;1.25;0.20;;;;;;;5.61;55.73;96420.81;5244836;28;20053;-84
2023/01/16 11:40:03;;;;;;;1.88;0.20;;;;;;;5.72;54.79;96427.47;5246138;28;20100;-84
2023/01/16 11:46:27;;;;;;;1.65;0.47;;;;;;;5.87;56.34;96407.28;5242434;28;20049;-84
2023/01/16 11:49:23;;;;;;;0.50;0.30;;;;;;;6.39;55.24;96405.66;5240543;28;20048;-85
2023/01/16 11:52:28;;;;;;;1.42;0.88;;;;;;;6.13;55.77;96356.13;5244745;28;20088;-85
2023/01/16 11:55:20;;;;;;;1.23;0.50;;;;;;;6.43;55.05;96375.38;5241787;28;20049;-85
2023/01/16 11:58:38;;;;;;;0.40;0.30;;;;;;;6.27;55.33;96350.06;5227964;28;20120;-83
2023/01/16 12:02:19;;;;;;;0.60;0.30;;;;;;;6.37;56.16;96355.84;5223241;28;20073;-84
2023/01/16 12:09:04;;;;;;;0.68;0.38;;;;;;;7.48;53.95;96361.75;5213684;28;20050;-83
2023/01/16 12:15:59;;;;;;;0.95;0.45;;;;;;;7.19;52.91;96339.00;5236291;28;20318;-84
2023/01/16 12:19:23;;;;;;;2.25;0.32;;;;;;;7.20;52.80;96333.53;5236902;28;20080;-84
2023/01/16 12:22:14;;;;;;;2.67;0.40;;;;;;;7.22;52.35;96312.28;5222249;28;20052;-83
2023/01/16 12:25:42;;;;;;;0.80;0.38;;;;;;;6.90;53.94;96321.47;5224044;28;20482;-83
2023/01/16 12:28:50;;;;;;;0.40;0.32;;;;;;;7.43;52.78;96303.53;5234903;28;20057;-84
2023/01/16 12:32:17;;;;;;;0.22;0.22;;;;;;;7.32;52.91;96294.31;5237892;28;20518;-83
2023/01/16 12:35:39;;;;;;;1.25;0.20;;;;;;;7.70;53.35;96294.00;5238606;28;20048;-84
2023/01/16 12:38:36;;;;;;;3.40;0.35;;;;;;;8.05;51.81;96289.56;5227407;28;20079;-83
2023/01/16 12:45:06;;;;;;;0.40;0.30;;;;;;;7.87;53.52;96287.41;5232548;28;20055;-82
2023/01/16 12:48:12;;;;;;;0.52;0.30;;;;;;;7.65;52.56;96260.31;5234550;28;20055;-83
2023/01/16 12:51:18;;;;;;;2.22;0.47;;;;;;;8.19;51.84;96277.25;5237507;28;20049;-83
2023/01/16 12:54:14;;;;;;;1.15;0.35;;;;;;;8.48;50.89;96239.25;5227612;28;20059;-81
2023/01/16 12:57:21;;;;;;;0.38;0.20;;;;;;;7.82;53.37;96260.81;5224798;28;20051;-83
2023/01/16 13:00:23;;;;;;;2.22;0.43;;;;;;;8.02;53.46;96241.66;5226319;28;20053;-81
2023/01/16 13:03:40;;;;;;;0.68;0.40;;;;;;;8.52;52.06;96218.53;5211886;28;20056;-81
2023/01/16 13:06:46;;;;;;;0.52;0.30;;;;;;;8.12;53.65;96228.91;5226459;28;20095;-82
2023/01/16 13:09:40;;;;;;;1.00;0.50;;;;;;;8.28;52.70;96212.75;5213973;28;20069;-82
2023/01/16 13:15:53;;;;;;;0.70;0.45;;;;;;;8.78;50.95;96186.09;5230746;28;20044;-82
2023/01/16 13:18:50;;;;;;;0.88;0.38;;;;;;;8.54;51.96;96200.66;5228430;28;20066;-82
2023/01/16 13:21:55;;;;;;;0.90;0.30;;;;;;;8.48;51.89;96191.72;5235689;28;20065;-83
2023/01/16 13:24:51;;;;;;;1.45;0.30;;;;;;;8.05;53.50;96196.41;5230255;28;20118;-83
2023/01/16 13:27:47;;;;;;;2.60;1.15;;;;;;;8.17;53.90;96186.91;5208879;28;20045;-82
2023/01/16 13:30:37;;;;;;;3.50;0.40;;;;;;;8.44;52.63;96143.78;5240861;28;20045;-84
2023/01/16 13:33:31;;;;;;;0.30;0.30;;;;;;;8.69;52.91;96177.53;5230194;28;20051;-82
2023/01/16 13:36:40;;;;;;;;;;;;;;;8.84;51.20;96164.13;5225696;28;20564;-82
2023/01/16 13:39:43;;;;;;;0.20;0.20;;;;;;;8.14;53.82;96171.44;5226531;28;19990;-82
2023/01/16 13:42:36;;;;;;;0.95;0.28;;;;;;;9.03;52.11;96144.81;5214114;28;20064;-83
2023/01/16 13:45:48;;;;;;;0.98;0.32;;;;;;;9.12;50.96;96156.81;5204195;28;20053;-84
2023/01/16 13:48:39;;;;;;;0.30;0.25;;;;;;;8.63;52.44;96131.59;5206205;28;20369;-84
2023/01/16 13:51:30;;;;;;;0.38;0.20;;;;;;;8.53;51.93;96106.59;5219350;28;20056;-84
2023/01/16 13:54:41;;;;;;;0.50;0.25;;;;;;;8.05;52.38;96104.06;5220542;28;20527;-85
2023/01/16 13:57:33;;;;;;;0.57;0.40;;;;;;;8.34;51.99;96101.03;5210153;28;20255;-84
2023/01/16 14:00:24;;;;;;;0.22;0.20;;;;;;;8.47;51.62;96042.19;5205390;28;20084;-84
2023/01/16 14:03:19;;;;;;;0.10;0.08;;;;;;;9.70;49.88;96127.03;5219963;28;20081;-81
2023/01/16 14:06:10;;;;;;;0.40;0.22;;;;;;;9.82;48.87;96119.25;5221898;28;20096;-84
2023/01/16 14:09:08;;;;;;;1.13;0.22;;;;;;;10.27;49.78;96111.34;5193134;28;20056;-83
2023/01/16 14:12:21;;;;;;;0.43;0.30;;;;;;;10.53;46.89;96108.53;5192522;28;20045;-84
2023/01/16 14:18:46;;;;;;;0.22;0.20;;;;;;;9.22;49.86;96110.66;5207953;28;20042;-83
2023/01/16 14:21:37;;;;;;;0.30;0.20;;;;;;;8.77;50.51;96097.25;5224679;28;20320;-81
2023/01/16 14:24:28;;;;;;;0.52;0.22;;;;;;;9.04;49.64;96100.69;5212041;28;20050;-82
2023/01/16 14:27:23;;;;;;;0.43;0.30;;;;;;;9.36;48.91;96056.72;5212054;28;20042;-82
2023/01/16 14:30:19;;;;;;;2.00;0.20;;;;;;;7.98;52.16;96007.22;5201900;28;20139;-84
2023/01/16 14:33:17;;;;;;;2.13;0.20;;;;;;;7.91;51.92;96031.94;5191413;28;20060;-82
2023/01/16 14:36:13;;;;;;;2.42;0.20;;;;;;;8.28;51.13;96059.63;5184041;28;20061;-82
2023/01/16 14:39:03;;;;;;;0.55;0.20;;;;;;;8.26;50.21;96040.53;5183949;28;20174;-81
2023/01/16 14:58:07;;;;;;;0.10;0.10;;;;;;;8.61;51.52;96028.00;5205264;28;20083;-84
2023/01/16 15:02:18;;;;;;;0.10;0.10;;;;;;;8.44;51.53;96021.47;5190673;28;20045;-82
2023/01/16 15:04:11;;;;;;;0.17;0.15;;;;;;;7.54;54.22;95999.78;5200172;28;20065;-83
2023/01/16 15:07:02;;;;;;;0.57;0.30;;;;;;;7.52;53.47;95989.44;5201362;28;20116;-83
2023/01/16 15:09:54;;;;;;;2.90;0.28;;;;;;;7.59;53.71;96001.84;5199993;28;20080;-83
2023/01/16 15:12:45;;;;;;;0.13;0.10;;;;;;;7.82;53.67;95980.41;5207818;28;20055;-81
2023/01/16 15:15:35;;;;;;;1.20;0.20;;;;;;;7.54;54.71;95981.34;5230592;28;20120;-81
2023/01/16 15:24:53;;;;;;;1.05;0.28;;;;;;;7.66;52.36;95989.50;5230072;28;20059;-82